Main page
METAR-TAF:

METAR-TAF

Airports :

Jaipur, India

Jaipur International Airport

latitude: 26-49N, longitude: 075-48E, elevation: 385 m

Current weather observation

The report was made 43 minutes ago, at 06:00 UTC
Wind 5 kt from the West
Temperature 33°C
Humidity 28%
Pressure 1011 hPa
Visibility: 2500 m
haze

METAR: VIJP 210600Z 27005KT 2500 HZ NSC 33/12 Q1011 NOSIG

Time: 12:13 (06:43 UTC)

Forecast

The report was made 1 hour and 43 minutes ago, at 05:00 UTC
Forecast valid from 21 at 06 UTC to 22 at 12 UTC
Wind 5 kt from the East/Northeast
Visibility: 3000 m
Few clouds at a height of 10000 ft
haze, smoke, haze, smoke
Becoming
from 22 at 04 UTC to 22 at 06 UTC
Wind 5 kt from the South
Visibility: 5000 m
Few clouds at a height of 10000 ft
haze, smoke

TAF: VIJP 210500Z 2106/2212 07005KT 4000 HZ FU FEW100 5 3000 HZ FU NSC BECMG 2204/2206 18005KT 5000 HZ FU FEW100

Weather observations and forecasts of more than 4000 airports (METAR and TAF reports).

The available stations are represented by yellow and red dots on the map.

Hover mouse over dot to see the name of the station.

Then click to see weather observations and forecasts.

To change the map : click on the green buttons with a black cross to zoom in, on the green button with a dash to zoom out, or on the green arrows for adjacent maps.


METAR-TAF: